createdAt,value
2022-10-12T00:00:47.024Z,9.68
2022-10-12T00:03:14.907Z,9.48
2022-10-12T00:05:42.889Z,11.90
2022-10-12T00:08:10.817Z,8.90
2022-10-12T00:10:42.039Z,7.30
2022-10-12T00:13:10.108Z,12.63
2022-10-12T00:15:39.031Z,12.82
2022-10-12T00:18:09.053Z,7.28
2022-10-12T00:20:36.970Z,11.68
2022-10-12T00:23:05.044Z,14.30
2022-10-12T00:25:32.913Z,6.97
2022-10-12T00:28:00.788Z,9.02
2022-10-12T00:30:28.729Z,9.45
2022-10-12T00:32:57.505Z,9.15
2022-10-12T00:35:29.128Z,10.85
2022-10-12T00:37:57.430Z,12.10
2022-10-12T00:40:25.462Z,8.90
2022-10-12T00:42:53.387Z,10.75
2022-10-12T00:45:21.385Z,8.27
2022-10-12T00:47:52.855Z,9.23
2022-10-12T00:50:25.651Z,7.20
2022-10-12T00:53:00.496Z,8.70
2022-10-12T00:55:31.796Z,6.80
2022-10-12T00:58:00.723Z,12.48
2022-10-12T01:00:28.681Z,12.70
2022-10-12T01:02:56.773Z,8.83
2022-10-12T01:05:25.044Z,8.45
2022-10-12T01:07:54.327Z,8.95
2022-10-12T01:10:22.398Z,8.82
2022-10-12T01:12:51.016Z,8.00
2022-10-12T01:15:19.320Z,7.38
2022-10-12T01:18:00.411Z,10.05
2022-10-12T01:20:45.502Z,6.10
2022-10-12T01:23:43.126Z,8.48
2022-10-12T01:26:58.222Z,10.60
2022-10-12T01:29:55.136Z,7.45
2022-10-12T01:32:30.409Z,7.30
2022-10-12T01:35:04.090Z,6.68
2022-10-12T01:37:40.464Z,5.07
2022-10-12T01:40:16.077Z,8.65
2022-10-12T01:42:45.443Z,4.32
2022-10-12T01:45:16.504Z,6.38
2022-10-12T01:47:49.398Z,7.90
2022-10-12T01:50:18.801Z,5.90
2022-10-12T01:52:54.509Z,5.05
2022-10-12T01:55:31.437Z,7.32
2022-10-12T01:58:27.258Z,4.40
2022-10-12T02:01:03.886Z,5.20
2022-10-12T02:03:39.016Z,6.15
2022-10-12T02:06:10.110Z,5.10
2022-10-12T02:08:43.279Z,10.15
2022-10-12T02:11:13.773Z,5.88
2022-10-12T02:13:44.986Z,11.15
2022-10-12T02:16:15.738Z,7.80
2022-10-12T02:18:48.707Z,6.63
2022-10-12T02:21:21.667Z,8.00
2022-10-12T02:23:51.229Z,7.60
2022-10-12T02:26:20.529Z,5.82
2022-10-12T02:28:50.641Z,7.97
2022-10-12T02:31:25.662Z,4.97
2022-10-12T02:34:01.273Z,5.78
2022-10-12T02:36:37.015Z,5.20
2022-10-12T02:39:10.509Z,11.87
2022-10-12T02:41:43.273Z,12.40
2022-10-12T02:44:14.755Z,8.45
2022-10-12T02:46:43.397Z,6.72
2022-10-12T02:49:14.178Z,4.03
2022-10-12T02:51:43.388Z,7.15
2022-10-12T02:54:11.845Z,6.43
2022-10-12T02:56:45.333Z,5.63
2022-10-12T02:59:13.581Z,4.77
2022-10-12T03:01:41.780Z,5.45
2022-10-12T03:04:09.797Z,6.80
2022-10-12T03:06:39.107Z,7.30
2022-10-12T03:09:07.385Z,5.28
2022-10-12T03:11:35.398Z,5.50
2022-10-12T03:14:03.312Z,7.18
2022-10-12T03:16:31.261Z,4.47
2022-10-12T03:19:00.001Z,4.22
2022-10-12T03:21:27.907Z,5.18
2022-10-12T03:23:57.279Z,5.60
2022-10-12T03:26:25.176Z,3.08
2022-10-12T03:28:53.128Z,6.82
2022-10-12T03:31:21.107Z,5.50
2022-10-12T03:33:49.013Z,3.47
2022-10-12T03:36:17.051Z,5.63
2022-10-12T03:38:44.926Z,4.47
2022-10-12T03:41:14.323Z,3.85
2022-10-12T03:43:42.274Z,6.70
2022-10-12T03:46:10.177Z,2.80
2022-10-12T03:48:38.111Z,4.20
2022-10-12T03:51:06.345Z,6.22
2022-10-12T03:53:34.341Z,6.63
2022-10-12T03:56:02.229Z,6.32
2022-10-12T03:58:31.572Z,3.53
2022-10-12T04:00:59.503Z,5.65
2022-10-12T04:03:27.455Z,8.70
2022-10-12T04:05:55.858Z,4.93
2022-10-12T04:08:23.966Z,7.30
2022-10-12T04:10:52.003Z,6.05
2022-10-12T04:13:20.879Z,7.20
2022-10-12T04:15:50.121Z,5.38
2022-10-12T04:18:18.008Z,5.57
2022-10-12T04:20:48.966Z,6.10
2022-10-12T04:23:16.986Z,5.35
2022-10-12T04:25:44.903Z,6.55
2022-10-12T04:28:12.918Z,5.82
2022-10-12T04:30:41.138Z,6.30
2022-10-12T04:33:10.414Z,8.73
2022-10-12T04:35:38.313Z,7.75
2022-10-12T04:38:07.495Z,5.33
2022-10-12T04:40:35.434Z,6.93
2022-10-12T04:43:03.355Z,5.95
2022-10-12T04:45:31.444Z,5.60
2022-10-12T04:47:59.376Z,5.47
2022-10-12T04:50:30.175Z,7.50
2022-10-12T04:52:58.497Z,6.53
2022-10-12T04:55:26.504Z,5.68
2022-10-12T04:57:54.456Z,6.53
2022-10-12T05:00:22.524Z,10.07
2022-10-12T05:02:50.732Z,7.40
2022-10-12T05:05:18.721Z,7.15
2022-10-12T05:07:47.943Z,9.85
2022-10-12T05:10:15.910Z,7.50
2022-10-12T05:12:43.808Z,9.23
2022-10-12T05:15:12.194Z,9.23
2022-10-12T05:17:40.277Z,13.05
2022-10-12T05:20:10.145Z,7.95
2022-10-12T05:22:38.060Z,11.90
2022-10-12T05:25:08.801Z,10.25
2022-10-12T05:27:36.930Z,6.95
2022-10-12T05:30:05.764Z,8.77
2022-10-12T05:32:33.709Z,7.47
2022-10-12T05:35:01.741Z,9.20
2022-10-12T05:37:29.729Z,12.27
2022-10-12T05:39:57.598Z,9.93
2022-10-12T05:42:26.846Z,12.15
2022-10-12T05:44:54.762Z,10.05
2022-10-12T05:47:22.656Z,15.70
2022-10-12T05:49:50.606Z,9.40
2022-10-12T05:52:18.526Z,10.50
2022-10-12T05:54:46.435Z,8.82
2022-10-12T05:57:15.377Z,8.80
2022-10-12T05:59:44.654Z,7.35
2022-10-12T06:02:15.752Z,8.43
2022-10-12T06:04:44.130Z,9.30
2022-10-12T06:07:12.046Z,9.75
2022-10-12T06:09:40.095Z,11.02
2022-10-12T06:12:08.631Z,7.88
2022-10-12T06:14:36.505Z,8.23
2022-10-12T06:17:05.813Z,6.25
2022-10-12T06:19:33.764Z,8.10
2022-10-12T06:22:01.700Z,8.93
2022-10-12T06:24:29.592Z,11.05
2022-10-12T06:26:57.660Z,7.65
2022-10-12T06:29:25.637Z,8.10
2022-10-12T06:31:54.214Z,9.55
2022-10-12T06:34:23.492Z,11.00
2022-10-12T06:36:52.256Z,12.00
2022-10-12T06:39:20.120Z,14.75
2022-10-12T06:41:48.067Z,12.50
2022-10-12T06:44:16.043Z,10.87
2022-10-12T06:46:43.947Z,11.17
2022-10-12T06:49:11.918Z,10.55
2022-10-12T06:51:41.254Z,10.18
2022-10-12T06:54:09.193Z,15.90
2022-10-12T06:56:38.149Z,10.00
2022-10-12T06:59:06.181Z,10.70
2022-10-12T07:01:34.142Z,12.73
2022-10-12T07:04:02.179Z,11.90
2022-10-12T07:06:30.131Z,12.30
2022-10-12T07:08:59.392Z,12.32
2022-10-12T07:11:27.395Z,16.08
2022-10-12T07:13:55.315Z,14.25
2022-10-12T07:16:23.281Z,11.03
2022-10-12T07:18:51.199Z,9.90
2022-10-12T07:21:19.173Z,11.63
2022-10-12T07:23:47.043Z,12.05
2022-10-12T07:26:16.302Z,15.18
2022-10-12T07:28:44.262Z,12.40
2022-10-12T07:31:12.681Z,12.50
2022-10-12T07:33:40.555Z,12.15
2022-10-12T07:36:21.237Z,15.47
2022-10-12T07:38:50.167Z,14.30
2022-10-12T07:41:20.177Z,15.75
2022-10-12T07:43:48.166Z,14.35
2022-10-12T07:46:16.168Z,11.90
2022-10-12T07:48:49.843Z,12.88
2022-10-12T07:51:18.437Z,15.23
2022-10-12T07:53:46.990Z,11.68
2022-10-12T07:56:16.131Z,14.13
2022-10-12T07:58:50.024Z,18.38
2022-10-12T08:01:18.784Z,13.52
2022-10-12T08:03:46.876Z,14.30
2022-10-12T08:06:17.180Z,16.98
2022-10-12T08:08:45.669Z,14.93
2022-10-12T08:11:14.796Z,14.30
2022-10-12T08:13:43.345Z,12.70
2022-10-12T08:16:15.108Z,18.05
2022-10-12T08:18:43.045Z,14.70
2022-10-12T08:21:12.330Z,16.52
2022-10-12T08:23:40.418Z,15.70
2022-10-12T08:26:08.780Z,17.35
2022-10-12T08:28:37.160Z,11.77
2022-10-12T08:31:08.389Z,12.45
2022-10-12T08:33:37.931Z,13.68
2022-10-12T08:36:07.205Z,16.45
2022-10-12T08:38:38.513Z,14.18
2022-10-12T08:41:20.192Z,15.25
2022-10-12T08:44:00.504Z,14.77
2022-10-12T08:46:29.438Z,13.95
2022-10-12T08:49:02.360Z,15.13
2022-10-12T08:51:32.514Z,15.75
2022-10-12T08:54:04.751Z,11.70
2022-10-12T08:56:34.808Z,17.48
2022-10-12T08:59:03.486Z,13.25
2022-10-12T09:01:37.355Z,15.00
2022-10-12T09:04:34.335Z,9.32
2022-10-12T09:07:09.273Z,14.38
2022-10-12T09:09:47.558Z,16.17
2022-10-12T09:12:41.402Z,12.93
2022-10-12T09:15:16.262Z,19.83
2022-10-12T09:17:48.441Z,20.35
2022-10-12T09:20:21.172Z,12.67
2022-10-12T09:22:51.094Z,14.90
2022-10-12T09:25:22.581Z,12.57
2022-10-12T09:27:50.553Z,13.25
2022-10-12T09:30:20.381Z,14.95
2022-10-12T09:33:05.131Z,18.30
2022-10-12T09:35:35.191Z,16.73
2022-10-12T09:38:03.641Z,13.10
2022-10-12T09:40:33.207Z,11.18
2022-10-12T09:43:03.077Z,14.93
2022-10-12T09:45:34.088Z,14.60
2022-10-12T09:48:14.064Z,15.18
2022-10-12T09:50:46.684Z,15.05
2022-10-12T09:53:28.414Z,13.55
2022-10-12T09:56:00.999Z,15.20
2022-10-12T09:58:30.075Z,16.00
2022-10-12T10:01:29.334Z,17.30
2022-10-12T10:04:16.762Z,19.00
2022-10-12T10:06:47.890Z,14.13
2022-10-12T10:09:32.093Z,13.18
2022-10-12T10:12:14.039Z,18.73
2022-10-12T10:14:44.897Z,16.67
2022-10-12T10:17:16.637Z,14.27
2022-10-12T10:19:51.310Z,14.67
2022-10-12T10:22:21.494Z,17.40
2022-10-12T10:24:57.680Z,15.13
2022-10-12T10:27:34.692Z,16.40
2022-10-12T10:30:40.712Z,15.68
2022-10-12T10:33:15.955Z,15.82
2022-10-12T10:35:58.070Z,11.02
2022-10-12T10:38:28.153Z,14.93
2022-10-12T10:40:57.534Z,16.50
2022-10-12T10:43:28.981Z,14.65
2022-10-12T10:46:00.926Z,15.00
2022-10-12T10:48:31.845Z,14.45
2022-10-12T10:51:02.197Z,9.95
2022-10-12T10:53:43.658Z,16.80
2022-10-12T10:56:15.362Z,14.00
2022-10-12T10:58:46.401Z,14.43
2022-10-12T11:01:21.573Z,13.20
2022-10-12T11:03:59.107Z,18.02
2022-10-12T11:06:37.269Z,14.95
2022-10-12T11:09:12.892Z,13.90
2022-10-12T11:11:43.806Z,11.43
2022-10-12T11:14:17.215Z,10.23
2022-10-12T11:16:51.708Z,10.20
2022-10-12T11:19:27.634Z,13.15
2022-10-12T11:22:00.416Z,13.85
2022-10-12T11:24:34.473Z,15.32
2022-10-12T11:27:08.498Z,10.70
2022-10-12T11:29:38.378Z,17.20
2022-10-12T11:32:14.924Z,10.10
2022-10-12T11:34:50.595Z,14.85
2022-10-12T11:37:22.089Z,14.93
2022-10-12T11:39:53.791Z,14.18
2022-10-12T11:42:30.623Z,10.98
2022-10-12T11:45:00.652Z,11.00
2022-10-12T11:47:37.127Z,12.23
2022-10-12T11:50:07.710Z,11.05
2022-10-12T11:52:41.813Z,11.02
2022-10-12T11:55:32.850Z,13.90
2022-10-12T11:58:13.132Z,17.52
2022-10-12T12:00:52.023Z,13.52
2022-10-12T12:03:27.225Z,17.00
2022-10-12T12:05:55.173Z,14.68
2022-10-12T12:08:24.737Z,15.88
2022-10-12T12:11:05.284Z,13.30
2022-10-12T12:13:33.295Z,15.50
2022-10-12T12:16:35.175Z,20.83
2022-10-12T12:19:37.433Z,17.08
2022-10-12T12:22:20.152Z,17.27
2022-10-12T12:25:05.427Z,19.38
2022-10-12T12:27:38.711Z,22.50
2022-10-12T12:30:25.476Z,18.95
2022-10-12T12:32:56.452Z,19.25
2022-10-12T12:35:28.709Z,17.57
2022-10-12T12:38:19.408Z,20.95
2022-10-12T12:41:00.530Z,20.93
2022-10-12T12:43:56.192Z,20.50
2022-10-12T12:46:26.439Z,23.35
2022-10-12T12:49:02.400Z,20.87
2022-10-12T12:51:40.863Z,13.65
2022-10-12T12:54:22.082Z,18.70
2022-10-12T12:57:11.284Z,22.60
2022-10-12T13:00:04.100Z,21.77
2022-10-12T13:03:03.097Z,16.52
2022-10-12T13:06:16.204Z,16.98
2022-10-12T13:09:19.339Z,19.98
2022-10-12T13:12:03.403Z,23.30
2022-10-12T13:14:52.460Z,18.57
2022-10-12T13:17:40.943Z,21.33
2022-10-12T13:20:18.058Z,16.25
2022-10-12T13:22:47.917Z,23.77
2022-10-12T13:25:25.592Z,21.60
2022-10-12T13:27:54.953Z,21.45
2022-10-12T13:30:30.926Z,20.95
2022-10-12T13:33:07.602Z,24.73
2022-10-12T13:35:39.418Z,22.35
2022-10-12T13:38:20.623Z,22.58
2022-10-12T13:40:58.868Z,25.63
2022-10-12T13:43:44.898Z,29.07
2022-10-12T13:46:14.181Z,23.60
2022-10-12T13:49:05.488Z,21.23
2022-10-12T13:51:34.780Z,24.50
2022-10-12T13:54:04.061Z,18.15
2022-10-12T13:56:32.336Z,19.00
2022-10-12T13:59:05.461Z,22.08
2022-10-12T14:01:49.369Z,23.25
2022-10-12T14:04:18.650Z,18.20
2022-10-12T14:06:56.111Z,18.30
2022-10-12T14:09:26.477Z,23.80
2022-10-12T14:11:56.603Z,21.40
2022-10-12T14:14:32.449Z,25.83
2022-10-12T14:17:00.635Z,18.95
2022-10-12T14:19:44.936Z,21.08
2022-10-12T14:22:14.199Z,19.63
2022-10-12T14:24:42.256Z,17.80
2022-10-12T14:27:20.891Z,16.48
2022-10-12T14:29:49.338Z,17.67
2022-10-12T14:32:40.948Z,20.65
2022-10-12T14:35:31.520Z,15.32
2022-10-12T14:37:59.415Z,16.50
2022-10-12T14:40:38.410Z,14.65
2022-10-12T14:43:09.432Z,14.13
2022-10-12T14:45:37.604Z,12.18
2022-10-12T14:48:09.983Z,15.32
2022-10-12T14:50:39.241Z,16.77
2022-10-12T14:53:12.397Z,13.38
2022-10-12T14:55:41.396Z,15.10
2022-10-12T14:58:13.278Z,17.00
2022-10-12T15:00:41.249Z,12.90
2022-10-12T15:03:09.265Z,12.02
2022-10-12T15:05:37.247Z,11.95
2022-10-12T15:08:09.044Z,16.95
2022-10-12T15:10:38.091Z,15.52
2022-10-12T15:13:06.129Z,15.70
2022-10-12T15:15:39.101Z,13.67
2022-10-12T15:18:07.377Z,11.10
2022-10-12T15:20:36.352Z,11.52
2022-10-12T15:23:06.291Z,11.93
2022-10-12T15:25:40.860Z,10.90
2022-10-12T15:28:08.781Z,14.30
2022-10-12T15:30:52.227Z,13.55
2022-10-12T15:33:25.115Z,9.93
2022-10-12T15:35:53.081Z,17.92
2022-10-12T15:38:22.492Z,12.98
2022-10-12T15:40:51.806Z,12.17
2022-10-12T15:43:20.469Z,14.15
2022-10-12T15:45:48.382Z,9.98
2022-10-12T15:48:16.273Z,13.35
2022-10-12T15:50:45.962Z,18.02
2022-10-12T15:53:16.671Z,15.30
2022-10-12T15:55:45.938Z,18.65
2022-10-12T15:58:13.916Z,16.20
2022-10-12T16:00:41.879Z,17.15
2022-10-12T16:03:15.884Z,13.27
2022-10-12T16:05:44.010Z,14.02
2022-10-12T16:08:11.945Z,15.67
2022-10-12T16:10:42.128Z,15.32
2022-10-12T16:13:14.356Z,15.23
2022-10-12T16:15:43.533Z,15.00
2022-10-12T16:18:15.304Z,17.30
2022-10-12T16:20:49.775Z,14.55
2022-10-12T16:23:27.032Z,15.47
2022-10-12T16:25:55.105Z,19.33
2022-10-12T16:28:25.484Z,20.55
2022-10-12T16:30:54.142Z,14.95
2022-10-12T16:33:22.134Z,14.65
2022-10-12T16:35:50.047Z,16.42
2022-10-12T16:38:19.910Z,19.73
2022-10-12T16:40:49.963Z,19.77
2022-10-12T16:43:17.978Z,17.13
2022-10-12T16:45:55.212Z,14.55
2022-10-12T16:48:23.131Z,16.92
2022-10-12T16:50:51.046Z,17.77
2022-10-12T16:53:18.943Z,16.05
2022-10-12T16:55:48.958Z,17.30
2022-10-12T16:58:16.878Z,14.77
2022-10-12T17:00:44.828Z,18.35
2022-10-12T17:03:14.361Z,18.08
2022-10-12T17:05:42.937Z,13.63
2022-10-12T17:08:15.122Z,17.13
2022-10-12T17:10:44.195Z,12.80
2022-10-12T17:13:13.413Z,17.17
2022-10-12T17:15:42.644Z,14.40
2022-10-12T17:18:10.802Z,13.60
2022-10-12T17:20:40.113Z,18.35
2022-10-12T17:23:09.380Z,14.55
2022-10-12T17:25:37.323Z,13.70
2022-10-12T17:28:05.417Z,13.48
2022-10-12T17:30:33.349Z,17.42
2022-10-12T17:33:01.255Z,16.33
2022-10-12T17:35:29.166Z,15.40
2022-10-12T17:37:58.422Z,16.98
2022-10-12T17:40:26.329Z,14.00
2022-10-12T17:42:54.670Z,19.02
2022-10-12T17:45:22.597Z,13.57
2022-10-12T17:47:50.513Z,16.60
2022-10-12T17:50:18.621Z,18.17
2022-10-12T17:52:46.698Z,20.25
2022-10-12T17:55:36.087Z,15.80
2022-10-12T17:58:04.355Z,17.65
2022-10-12T18:00:32.641Z,16.02
2022-10-12T18:03:00.567Z,17.98
2022-10-12T18:05:29.140Z,14.75
2022-10-12T18:07:57.037Z,13.80
2022-10-12T18:10:28.479Z,12.45
2022-10-12T18:12:56.864Z,15.85
2022-10-12T18:15:24.789Z,18.85
2022-10-12T18:17:54.703Z,13.10
2022-10-12T18:20:22.782Z,15.18
2022-10-12T18:22:50.681Z,17.00
2022-10-12T18:25:18.636Z,13.53
2022-10-12T18:27:50.171Z,14.07
2022-10-12T18:30:18.239Z,15.80
2022-10-12T18:32:46.198Z,15.47
2022-10-12T18:35:14.091Z,18.70
2022-10-12T18:37:42.032Z,16.35
2022-10-12T18:40:11.675Z,13.55
2022-10-12T18:42:39.685Z,15.30
2022-10-12T18:45:09.696Z,16.52
2022-10-12T18:47:37.828Z,14.13
2022-10-12T18:50:07.057Z,16.35
2022-10-12T18:52:35.667Z,15.70
2022-10-12T18:55:03.596Z,16.73
2022-10-12T18:57:34.351Z,19.75
2022-10-12T19:00:05.850Z,16.40
2022-10-12T19:02:36.668Z,14.90
2022-10-12T19:05:05.413Z,16.17
2022-10-12T19:07:35.220Z,18.05
2022-10-12T19:10:04.355Z,18.25
2022-10-12T19:12:32.253Z,16.10
2022-10-12T19:15:00.241Z,19.50
2022-10-12T19:17:28.230Z,15.20
2022-10-12T19:19:58.725Z,18.20
2022-10-12T19:22:26.787Z,20.33
2022-10-12T19:24:54.985Z,22.00
2022-10-12T19:27:22.889Z,20.37
2022-10-12T19:29:51.025Z,21.90
2022-10-12T19:32:19.202Z,20.38
2022-10-12T19:34:47.359Z,20.97
2022-10-12T19:37:16.622Z,20.25
2022-10-12T19:39:46.845Z,17.25
2022-10-12T19:42:14.775Z,22.30
2022-10-12T19:44:42.934Z,16.58
2022-10-12T19:47:10.825Z,17.88
2022-10-12T19:49:43.146Z,17.48
2022-10-12T19:52:13.085Z,19.33
2022-10-12T19:54:42.297Z,22.83
2022-10-12T19:57:10.570Z,18.95
2022-10-12T19:59:38.502Z,18.23
2022-10-12T20:02:06.451Z,16.88
2022-10-12T20:04:34.350Z,19.67
2022-10-12T20:07:02.247Z,19.47
2022-10-12T20:09:30.846Z,16.90
2022-10-12T20:12:00.183Z,18.40
2022-10-12T20:14:29.865Z,16.95
2022-10-12T20:16:57.763Z,19.87
2022-10-12T20:19:25.861Z,19.85
2022-10-12T20:21:53.862Z,16.17
2022-10-12T20:24:22.044Z,16.48
2022-10-12T20:26:50.224Z,18.83
2022-10-12T20:29:19.915Z,16.58
2022-10-12T20:31:48.264Z,22.10
2022-10-12T20:34:16.201Z,22.38
2022-10-12T20:36:44.088Z,17.42
2022-10-12T20:39:12.257Z,20.03
2022-10-12T20:41:40.980Z,20.40
2022-10-12T20:44:10.823Z,15.50
2022-10-12T20:46:40.171Z,17.92
2022-10-12T20:49:08.085Z,17.48
2022-10-12T20:51:39.880Z,16.10
2022-10-12T20:54:09.098Z,19.58
2022-10-12T20:56:41.259Z,17.67
2022-10-12T20:59:09.464Z,19.47
2022-10-12T21:01:38.795Z,16.13
2022-10-12T21:04:06.702Z,15.85
2022-10-12T21:06:36.264Z,19.17
2022-10-12T21:09:04.351Z,17.27
2022-10-12T21:11:33.102Z,16.33
2022-10-12T21:14:00.994Z,18.35
2022-10-12T21:16:28.902Z,20.20
2022-10-12T21:18:58.157Z,17.63
2022-10-12T21:21:26.892Z,14.75
2022-10-12T21:23:56.182Z,15.30
2022-10-12T21:26:26.196Z,11.85
2022-10-12T21:28:54.317Z,18.70
2022-10-12T21:31:26.009Z,18.60
2022-10-12T21:33:57.529Z,16.45
2022-10-12T21:36:27.337Z,18.00
2022-10-12T21:38:56.178Z,13.90
2022-10-12T21:41:26.214Z,16.48
2022-10-12T21:43:54.649Z,13.13
2022-10-12T21:46:25.032Z,21.42
2022-10-12T21:48:54.024Z,15.65
2022-10-12T21:51:24.665Z,17.48
2022-10-12T21:53:53.033Z,16.67
2022-10-12T21:56:23.377Z,14.17
2022-10-12T21:58:52.698Z,15.82
2022-10-12T22:01:22.995Z,14.73
2022-10-12T22:03:54.204Z,17.20
2022-10-12T22:06:24.828Z,14.48
2022-10-12T22:08:54.448Z,11.75
2022-10-12T22:11:22.739Z,17.17
2022-10-12T22:13:50.987Z,16.63
2022-10-12T22:16:20.000Z,18.60
2022-10-12T22:18:47.860Z,17.03
2022-10-12T22:21:17.608Z,16.23
2022-10-12T22:23:47.083Z,11.82
2022-10-12T22:26:17.426Z,15.93
2022-10-12T22:28:45.572Z,13.18
2022-10-12T22:31:15.315Z,17.07
2022-10-12T22:33:43.208Z,13.25
2022-10-12T22:36:12.533Z,14.15
2022-10-12T22:38:40.784Z,13.27
2022-10-12T22:41:12.906Z,17.05
2022-10-12T22:43:41.521Z,19.02
2022-10-12T22:46:09.840Z,18.27
2022-10-12T22:48:38.205Z,17.25
2022-10-12T22:51:07.439Z,19.13
2022-10-12T22:53:35.838Z,17.48
2022-10-12T22:56:06.557Z,18.07
2022-10-12T22:58:36.346Z,15.27
2022-10-12T23:01:05.541Z,13.95
2022-10-12T23:03:34.281Z,15.18
2022-10-12T23:06:02.483Z,14.20
2022-10-12T23:08:30.807Z,19.05
2022-10-12T23:11:04.768Z,18.20
2022-10-12T23:13:33.177Z,15.13
2022-10-12T23:16:08.107Z,18.50
2022-10-12T23:18:36.117Z,16.98
2022-10-12T23:21:06.487Z,13.65
2022-10-12T23:23:35.122Z,16.80
2022-10-12T23:26:05.499Z,15.27
2022-10-12T23:28:33.923Z,16.73
2022-10-12T23:31:05.665Z,15.10
2022-10-12T23:33:34.226Z,17.48
2022-10-12T23:36:04.424Z,18.13
2022-10-12T23:38:33.553Z,16.75
2022-10-12T23:41:01.725Z,18.83
2022-10-12T23:43:30.099Z,18.20
2022-10-12T23:45:58.076Z,19.37
2022-10-12T23:48:27.921Z,15.32
2022-10-12T23:50:56.031Z,14.55
2022-10-12T23:53:25.205Z,17.45
2022-10-12T23:55:53.604Z,19.67
2022-10-12T23:58:22.131Z,15.85
